Time;durP1;ratioP1;P1;durP2;ratioP2;P2;SDS_P1;SDS_P2;PMS_P1;PMS_P2;Temp;Humidity;BMP_temperature;BMP_pressure;BME280_temperature;BME280_humidity;BME280_pressure;Samples;Min_cycle;Max_cycle;Signal;HPM_P1;HPM_P2
2023/03/31 00:01:34;;;;;;;;;3.20;2.80;;;;;14.53;64.72;99839.47;4999395;28;46178;-54
2023/03/31 00:04:07;;;;;;;;;3.50;3.00;;;;;14.68;64.74;99860.03;4999548;28;45277;-54
2023/03/31 00:06:36;;;;;;;;;5.20;3.80;;;;;14.75;64.87;99891.91;5017437;28;45438;-53
2023/03/31 00:09:09;;;;;;;;;3.40;3.00;;;;;14.67;65.05;99877.72;4999445;28;45673;-54
2023/03/31 00:11:35;;;;;;;;;2.60;2.60;;;;;14.78;65.40;99896.06;4999150;28;47722;-55
2023/03/31 00:14:00;;;;;;;;;2.50;2.50;;;;;14.63;65.20;99877.41;5016979;28;45269;-55
2023/03/31 00:16:26;;;;;;;;;5.75;3.50;;;;;14.70;65.66;99882.69;4999186;28;45275;-53
2023/03/31 00:18:52;;;;;;;;;1.00;1.00;;;;;14.57;66.13;99826.78;4999458;28;45270;-51
2023/03/31 00:21:24;;;;;;;;;3.00;3.00;;;;;14.53;66.70;99797.22;5016621;28;45693;-54
2023/03/31 00:23:53;;;;;;;;;3.80;3.00;;;;;14.42;66.30;99799.03;5016712;28;45252;-53
2023/03/31 00:26:19;;;;;;;;;4.20;1.20;;;;;14.44;66.31;99770.06;4999316;28;45593;-53
2023/03/31 00:28:45;;;;;;;;;4.00;3.50;;;;;14.41;66.49;99758.72;5002521;28;45330;-52
2023/03/31 00:31:10;;;;;;;;;1.40;1.40;;;;;14.32;66.80;99752.84;4982480;28;47669;-55
2023/03/31 00:33:36;;;;;;;;;3.75;3.00;;;;;14.33;66.59;99738.78;4998794;28;45556;-54
2023/03/31 00:36:04;;;;;;;;;5.50;1.00;;;;;14.05;66.17;99690.22;5016589;28;45339;-53
2023/03/31 00:38:31;;;;;;;;;6.20;1.80;;;;;14.22;66.51;99726.81;4999597;28;45489;-51
2023/03/31 00:40:56;;;;;;;;;2.80;1.20;;;;;14.25;65.98;99721.88;5016384;28;45909;-50
2023/03/31 00:43:33;;;;;;;;;0.50;0.50;;;;;14.26;65.92;99740.09;5015985;28;45262;-52
2023/03/31 00:46:17;;;;;;;;;5.40;3.80;;;;;14.28;65.92;99713.91;5016359;28;45451;-54
2023/03/31 00:48:47;;;;;;;;;5.60;2.40;;;;;14.31;65.28;99718.88;4998478;28;45317;-51
2023/03/31 00:51:13;;;;;;;;;3.60;2.00;;;;;14.30;64.96;99708.13;4997202;28;48473;-54
2023/03/31 00:53:38;;;;;;;;;5.00;1.60;;;;;14.31;64.85;99696.81;4998704;28;45371;-54
2023/03/31 00:56:06;;;;;;;;;3.75;2.00;;;;;14.31;65.43;99693.22;4981719;28;45538;-52
2023/03/31 00:58:32;;;;;;;;;5.60;1.00;;;;;14.37;64.73;99690.22;4982286;28;45246;-52
2023/03/31 01:00:59;;;;;;;;;4.25;2.75;;;;;14.19;64.74;99639.03;4998618;28;45328;-54
2023/03/31 01:03:25;;;;;;;;;2.40;1.40;;;;;14.22;64.51;99659.75;5015804;28;45903;-51
2023/03/31 01:05:52;;;;;;;;;3.40;2.00;;;;;14.45;64.60;99671.50;4998520;28;45406;-55
2023/03/31 01:08:18;;;;;;;;;5.00;3.20;;;;;14.39;64.40;99676.16;5015862;28;45363;-54
2023/03/31 01:10:48;;;;;;;;;3.60;2.40;;;;;14.39;64.32;99669.81;5016036;28;45469;-52
2023/03/31 01:13:14;;;;;;;;;3.40;2.80;;;;;14.17;64.17;99638.47;4998310;28;45510;-53
2023/03/31 01:15:41;;;;;;;;;3.75;1.00;;;;;14.33;63.77;99664.28;4981468;28;45467;-54
2023/03/31 01:18:08;;;;;;;;;4.00;1.40;;;;;14.25;64.20;99661.97;4982138;28;45986;-55
2023/03/31 01:21:13;;;;;;;;;1.60;1.00;;;;;14.29;63.83;99651.25;4981899;28;45665;-54
2023/03/31 01:23:41;;;;;;;;;0.40;0.40;;;;;14.19;64.16;99638.22;4955735;28;45568;-55
2023/03/31 01:26:19;;;;;;;;;1.00;1.00;;;;;14.25;64.08;99648.16;5029863;28;45217;-52
2023/03/31 01:29:35;;;;;;;;;1.80;1.00;;;;;14.16;63.79;99613.91;5051036;28;45469;-51
2023/03/31 01:32:13;;;;;;;;;0.40;0.00;;;;;14.26;64.49;99637.97;4962681;28;46502;-53
2023/03/31 01:35:00;;;;;;;;;1.00;1.00;;;;;14.19;64.35;99641.78;4957229;28;45512;-51
2023/03/31 01:37:48;;;;;;;;;2.00;2.00;;;;;14.21;64.89;99634.06;5016845;28;45463;-53
2023/03/31 01:40:23;;;;;;;;;2.00;2.00;;;;;14.20;64.40;99635.16;5018064;28;46116;-54
2023/03/31 01:43:15;;;;;;;;;2.60;1.40;;;;;14.22;64.90;99635.75;5034787;28;45556;-52
2023/03/31 01:45:50;;;;;;;;;2.00;2.00;;;;;14.27;64.73;99626.69;5034583;28;45319;-50
2023/03/31 01:48:46;;;;;;;;;1.80;1.80;;;;;14.05;64.83;99591.72;5034773;28;45382;-50
2023/03/31 01:51:17;;;;;;;;;1.60;1.60;;;;;14.16;65.27;99600.09;5019787;28;45264;-57
2023/03/31 01:54:20;;;;;;;;;5.80;3.40;;;;;14.19;65.12;99589.34;5034164;28;45439;-53
2023/03/31 01:56:50;;;;;;;;;2.20;2.20;;;;;14.17;65.26;99591.56;4985335;28;45831;-54
2023/03/31 01:59:37;;;;;;;;;5.00;3.00;;;;;14.12;65.31;99568.59;5050281;28;45370;-53
2023/03/31 02:02:06;;;;;;;;;3.20;2.00;;;;;14.07;65.15;99563.88;5016777;28;45395;-53
2023/03/31 02:04:35;;;;;;;;;4.40;1.80;;;;;14.14;64.95;99567.25;5034139;28;45807;-53
2023/03/31 02:07:09;;;;;;;;;2.40;2.40;;;;;14.13;65.03;99573.84;5017160;28;45346;-53
2023/03/31 02:09:37;;;;;;;;;4.40;2.40;;;;;14.04;65.43;99562.47;5034183;28;45367;-54
2023/03/31 02:12:05;;;;;;;;;5.80;2.00;;;;;14.08;65.36;99562.78;5034279;28;45375;-51
2023/03/31 02:14:30;;;;;;;;;5.00;3.20;;;;;14.14;64.93;99553.44;5000436;28;46696;-55
2023/03/31 02:16:57;;;;;;;;;1.00;1.00;;;;;14.08;65.30;99548.97;5034587;28;45381;-54
2023/03/31 02:19:24;;;;;;;;;1.40;1.40;;;;;14.07;65.08;99552.84;5017213;28;45351;-52
2023/03/31 02:21:49;;;;;;;;;3.80;3.40;;;;;14.17;65.42;99543.81;5026782;28;45522;-53
2023/03/31 02:24:16;;;;;;;;;2.25;1.25;;;;;14.21;64.91;99553.22;5042030;28;45344;-55
2023/03/31 02:26:51;;;;;;;;;3.20;3.20;;;;;14.22;65.36;99538.34;5054115;28;45224;-53
2023/03/31 02:29:16;;;;;;;;;2.80;2.80;;;;;14.03;65.02;99502.06;5047671;28;45267;-51
2023/03/31 02:32:00;;;;;;;;;4.00;3.00;;;;;14.22;64.75;99535.56;5035527;28;45178;-51
2023/03/31 02:34:25;;;;;;;;;3.20;1.80;;;;;14.23;65.02;99526.19;5031588;28;45470;-53
2023/03/31 02:36:51;;;;;;;;;4.00;3.00;;;;;14.19;64.96;99509.34;5033188;28;45243;-54
2023/03/31 02:39:23;;;;;;;;;3.50;3.00;;;;;14.22;64.49;99508.81;5049888;28;45270;-54
2023/03/31 02:41:48;;;;;;;;;3.00;2.00;;;;;14.19;64.61;99495.53;5017076;28;45272;-54
2023/03/31 02:44:14;;;;;;;;;2.50;2.00;;;;;14.26;64.68;99505.50;5016129;28;46816;-51
2023/03/31 02:46:40;;;;;;;;;3.50;2.75;;;;;14.15;64.77;99482.56;5034427;28;45354;-51
2023/03/31 02:49:06;;;;;;;;;1.00;1.00;;;;;14.23;64.46;99480.13;5032629;28;45326;-51
2023/03/31 02:51:55;;;;;;;;;2.40;2.20;;;;;14.20;64.88;99464.09;5033512;28;45485;-53
2023/03/31 02:54:46;;;;;;;;;2.00;1.80;;;;;14.04;65.36;99429.25;5030027;28;47470;-51
2023/03/31 02:57:34;;;;;;;;;1.60;1.60;;;;;14.16;64.92;99457.47;5029940;28;45224;-54
2023/03/31 03:00:24;;;;;;;;;5.20;3.00;;;;;14.14;65.31;99456.06;5034339;28;45434;-52
2023/03/31 03:03:03;;;;;;;;;2.60;2.60;;;;;14.11;65.02;99460.19;5034594;28;45382;-56
2023/03/31 03:05:34;;;;;;;;;3.60;2.80;;;;;14.09;65.35;99449.41;5016400;28;45649;-55
2023/03/31 03:08:16;;;;;;;;;1.40;1.00;;;;;14.06;64.98;99432.56;5016304;28;45400;-52
2023/03/31 03:10:53;;;;;;;;;3.60;3.00;;;;;14.04;65.07;99441.09;5034445;28;45445;-53
2023/03/31 03:13:26;;;;;;;;;2.00;2.00;;;;;14.05;64.86;99441.94;5049148;28;45352;-53
2023/03/31 03:15:58;;;;;;;;;3.20;3.20;;;;;13.78;65.09;99393.25;5016263;28;45766;-52
2023/03/31 03:18:23;;;;;;;;;4.20;4.20;;;;;13.95;64.99;99435.28;5049032;28;45336;-52
2023/03/31 03:20:49;;;;;;;;;1.25;1.25;;;;;13.96;64.91;99434.19;5049517;28;45359;-50
2023/03/31 03:23:16;;;;;;;;;3.00;1.00;;;;;13.99;65.07;99443.84;5033294;28;45642;-55
2023/03/31 03:25:42;;;;;;;;;4.40;4.00;;;;;13.75;65.03;99402.88;5008352;28;45488;-54
2023/03/31 03:28:08;;;;;;;;;2.00;2.00;;;;;14.00;65.32;99436.38;5031901;28;45374;-52
2023/03/31 03:30:33;;;;;;;;;3.75;3.50;;;;;13.97;65.04;99423.94;5032514;28;45345;-53
2023/03/31 03:32:59;;;;;;;;;4.00;3.75;;;;;13.75;65.12;99385.47;5034222;28;45183;-54
2023/03/31 03:35:24;;;;;;;;;5.25;3.00;;;;;13.94;64.80;99427.25;5033906;28;45320;-53
2023/03/31 03:37:50;;;;;;;;;4.75;3.00;;;;;13.81;64.99;99404.56;5033932;28;45376;-53
2023/03/31 03:40:16;;;;;;;;;5.00;3.00;;;;;13.89;65.39;99421.72;5034099;28;45412;-55
2023/03/31 03:42:41;;;;;;;;;5.75;4.75;;;;;13.88;64.99;99412.59;5034234;28;45358;-53
2023/03/31 03:45:07;;;;;;;;;4.75;1.25;;;;;13.84;65.08;99397.69;5033516;28;45455;-54
2023/03/31 03:47:33;;;;;;;;;1.20;1.20;;;;;13.92;65.58;99401.84;5033543;28;45355;-50
2023/03/31 03:49:58;;;;;;;;;2.00;2.00;;;;;13.89;65.16;99394.13;5033882;28;45375;-51
2023/03/31 03:52:24;;;;;;;;;5.25;2.00;;;;;13.91;64.98;99400.19;5033996;28;45579;-54
2023/03/31 03:54:49;;;;;;;;;4.00;2.75;;;;;13.92;64.88;99397.19;5033116;28;45542;-53
2023/03/31 03:57:15;;;;;;;;;4.00;3.00;;;;;13.90;65.17;99395.78;5015388;28;45664;-53
2023/03/31 03:59:41;;;;;;;;;3.25;2.25;;;;;13.83;65.28;99376.72;5015778;28;45486;-51
2023/03/31 04:02:06;;;;;;;;;4.00;4.00;;;;;13.81;65.23;99357.69;5033564;28;45342;-50
2023/03/31 04:04:35;;;;;;;;;5.00;4.00;;;;;13.74;65.22;99323.16;5033324;28;45934;-54
2023/03/31 04:07:00;;;;;;;;;4.40;2.60;;;;;13.92;64.92;99377.03;5033783;28;45489;-52
2023/03/31 04:09:26;;;;;;;;;4.00;2.50;;;;;13.90;64.74;99362.69;5033155;28;45338;-54
2023/03/31 04:11:51;;;;;;;;;2.00;2.00;;;;;13.89;64.64;99364.63;5016128;28;45301;-52
2023/03/31 04:14:17;;;;;;;;;4.75;2.75;;;;;13.69;64.75;99313.78;5033173;28;45260;-53
2023/03/31 04:16:45;;;;;;;;;3.00;3.00;;;;;13.79;65.11;99328.72;5033666;28;45266;-52
2023/03/31 04:19:16;;;;;;;;;5.00;2.60;;;;;13.86;64.33;99348.59;5033383;28;45437;-50
2023/03/31 04:21:43;;;;;;;;;3.60;3.00;;;;;13.65;64.73;99311.81;5048641;28;45393;-51
2023/03/31 04:24:11;;;;;;;;;6.80;4.00;;;;;13.95;64.28;99366.31;5033265;28;46137;-50
2023/03/31 04:26:43;;;;;;;;;7.60;3.80;;;;;13.89;64.23;99356.34;5000360;28;45451;-53
2023/03/31 04:29:11;;;;;;;;;8.00;5.00;;;;;13.77;64.57;99339.19;5036727;28;45465;-52
2023/03/31 04:31:37;;;;;;;;;5.60;3.60;;;;;13.94;63.97;99364.63;5052203;28;45543;-53
2023/03/31 04:34:05;;;;;;;;;9.60;6.60;;;;;13.89;64.19;99344.47;5018488;28;47559;-53
2023/03/31 04:36:31;;;;;;;;;4.60;4.60;;;;;13.99;64.31;99347.31;5035544;28;45458;-52
2023/03/31 04:38:57;;;;;;;;;3.80;3.00;;;;;13.90;64.43;99359.94;5036463;28;45425;-55
2023/03/31 04:41:23;;;;;;;;;2.50;2.50;;;;;13.67;63.93;99315.97;5036999;28;45387;-53
2023/03/31 04:43:49;;;;;;;;;4.80;3.00;;;;;13.85;63.51;99343.34;5036236;28;46419;-53
2023/03/31 04:46:15;;;;;;;;;5.75;3.25;;;;;13.94;63.16;99342.56;5036524;28;45456;-54
2023/03/31 04:48:40;;;;;;;;;3.00;3.00;;;;;13.69;63.23;99315.72;5036516;28;45429;-55
2023/03/31 04:51:06;;;;;;;;;5.25;3.25;;;;;13.82;63.02;99340.03;5052176;28;45398;-51
2023/03/31 04:53:31;;;;;;;;;8.25;5.50;;;;;13.79;62.68;99331.47;5051483;28;45374;-54
2023/03/31 04:55:57;;;;;;;;;4.25;4.00;;;;;14.02;62.77;99345.91;5035645;28;45347;-54
2023/03/31 04:58:23;;;;;;;;;3.75;3.25;;;;;14.02;62.10;99351.44;5036326;28;45459;-54
2023/03/31 05:00:48;;;;;;;;;3.25;3.00;;;;;14.00;62.56;99345.34;5034795;28;45502;-54
2023/03/31 05:03:13;;;;;;;;;7.50;6.00;;;;;13.99;62.13;99350.06;5035692;28;46030;-54
2023/03/31 05:05:39;;;;;;;;;5.25;2.50;;;;;13.94;62.58;99337.06;5035915;28;45348;-52
2023/03/31 05:08:05;;;;;;;;;7.00;4.50;;;;;13.98;62.04;99353.91;5035737;28;45362;-51
2023/03/31 05:10:30;;;;;;;;;5.25;4.00;;;;;13.98;61.91;99347.56;5051402;28;45299;-51
2023/03/31 05:12:56;;;;;;;;;7.00;3.00;;;;;13.95;61.45;99344.25;5035475;28;46520;-54
2023/03/31 05:15:23;;;;;;;;;7.50;5.50;;;;;13.92;61.19;99342.00;4983181;28;45483;-52
2023/03/31 05:17:49;;;;;;;;;4.20;4.20;;;;;13.92;61.39;99339.25;5035694;28;45346;-52
2023/03/31 05:20:14;;;;;;;;;11.00;6.75;;;;;13.90;61.15;99330.44;5017317;28;45411;-54
2023/03/31 05:22:40;;;;;;;;;4.25;3.00;;;;;13.86;60.94;99321.03;5017613;28;46369;-53
2023/03/31 05:25:06;;;;;;;;;5.25;5.25;;;;;13.85;60.82;99333.16;5035395;28;45370;-54
2023/03/31 05:27:32;;;;;;;;;12.80;7.00;;;;;13.85;61.40;99330.41;5035839;28;45453;-54
2023/03/31 05:29:58;;;;;;;;;4.50;3.25;;;;;13.77;61.13;99322.66;5030859;28;45497;-53
2023/03/31 05:32:24;;;;;;;;;3.75;3.00;;;;;13.67;61.13;99315.16;5035449;28;46022;-54
2023/03/31 05:34:51;;;;;;;;;6.00;4.80;;;;;13.78;60.78;99319.59;5035197;28;45323;-55
2023/03/31 05:37:18;;;;;;;;;14.40;4.00;;;;;13.60;60.61;99304.34;5017172;28;45292;-53
2023/03/31 05:39:44;;;;;;;;;3.80;3.40;;;;;13.74;60.47;99312.13;5035888;28;45581;-53
2023/03/31 05:42:09;;;;;;;;;6.50;5.00;;;;;13.78;60.36;99310.50;5035405;28;45430;-54
2023/03/31 05:44:35;;;;;;;;;7.25;4.50;;;;;13.61;59.94;99266.59;5017163;28;45533;-52
2023/03/31 05:47:00;;;;;;;;;3.25;2.75;;;;;13.78;60.15;99321.53;5017501;28;45338;-53
2023/03/31 05:49:26;;;;;;;;;7.25;3.25;;;;;13.75;60.00;99309.13;5034741;28;45564;-53
2023/03/31 05:51:52;;;;;;;;;5.50;3.00;;;;;13.75;60.36;99311.88;5035345;28;46442;-50
2023/03/31 05:54:17;;;;;;;;;7.60;3.40;;;;;13.76;60.32;99326.50;5034334;28;45497;-53
2023/03/31 05:56:43;;;;;;;;;6.25;4.75;;;;;13.76;60.30;99326.50;5017378;28;45424;-53
2023/03/31 05:59:09;;;;;;;;;8.00;6.00;;;;;13.69;60.67;99302.75;5035005;28;45412;-50
2023/03/31 06:01:34;;;;;;;;;6.75;5.50;;;;;13.78;60.19;99318.78;5034638;28;46261;-53
2023/03/31 06:04:00;;;;;;;;;12.75;7.50;;;;;13.75;60.32;99333.09;5035003;28;45275;-55
2023/03/31 06:06:26;;;;;;;;;2.75;2.75;;;;;13.71;60.73;99326.47;5034693;28;45492;-54
2023/03/31 06:08:52;;;;;;;;;9.40;4.80;;;;;13.70;60.63;99311.84;5017383;28;45603;-54
2023/03/31 06:11:19;;;;;;;;;6.50;3.50;;;;;13.68;60.25;99320.38;5034587;28;46183;-50
2023/03/31 06:13:44;;;;;;;;;4.60;3.20;;;;;13.75;60.19;99324.81;5033111;28;45661;-52
2023/03/31 06:16:11;;;;;;;;;4.75;3.75;;;;;13.48;59.92;99274.25;5016882;28;45459;-51
2023/03/31 06:18:36;;;;;;;;;12.00;5.40;;;;;13.51;59.98;99283.91;5017073;28;45426;-52
2023/03/31 06:21:02;;;;;;;;;6.50;3.75;;;;;13.75;60.02;99322.06;5034558;28;46069;-54
2023/03/31 06:23:28;;;;;;;;;6.00;6.00;;;;;13.81;59.71;99326.50;5034037;28;45975;-53
2023/03/31 06:25:53;;;;;;;;;5.75;4.25;;;;;13.85;59.44;99319.38;5034443;28;45282;-54
2023/03/31 06:28:19;;;;;;;;;6.25;4.00;;;;;13.89;59.58;99326.03;5034788;28;45482;-53
2023/03/31 06:30:45;;;;;;;;;3.20;3.20;;;;;13.92;59.04;99338.41;5032651;28;47916;-50
2023/03/31 06:33:12;;;;;;;;;5.25;4.00;;;;;13.92;59.44;99339.25;5016772;28;45450;-51
2023/03/31 06:35:38;;;;;;;;;4.60;3.00;;;;;13.91;59.72;99314.69;5032666;28;45369;-50
2023/03/31 06:38:03;;;;;;;;;4.80;3.00;;;;;13.77;59.28;99314.38;5034546;28;45370;-54
2023/03/31 06:40:29;;;;;;;;;8.50;6.75;;;;;13.85;58.83;99330.41;5034408;28;46489;-54
2023/03/31 06:42:54;;;;;;;;;7.00;6.75;;;;;13.69;59.18;99301.91;5034461;28;45667;-52
2023/03/31 06:45:20;;;;;;;;;7.00;5.25;;;;;13.83;59.26;99335.38;5033058;28;45426;-50
2023/03/31 06:47:45;;;;;;;;;6.25;5.00;;;;;13.57;59.39;99299.38;5034072;28;45669;-55
2023/03/31 06:50:11;;;;;;;;;5.00;3.75;;;;;13.88;59.23;99329.84;5033675;28;46334;-53
2023/03/31 06:52:36;;;;;;;;;4.00;4.00;;;;;13.84;59.31;99348.06;5034167;28;45842;-52
2023/03/31 06:55:02;;;;;;;;;7.50;5.00;;;;;13.90;58.95;99344.22;5034097;28;45470;-54
2023/03/31 06:57:28;;;;;;;;;10.50;7.75;;;;;13.86;59.25;99345.84;5034531;28;45628;-52
2023/03/31 06:59:54;;;;;;;;;6.20;4.20;;;;;13.94;58.73;99336.25;5032369;28;46221;-55
2023/03/31 07:02:19;;;;;;;;;5.50;4.25;;;;;13.99;59.12;99339.03;5034493;28;45339;-53
2023/03/31 07:04:45;;;;;;;;;8.25;2.00;;;;;14.04;58.63;99329.94;5033872;28;45220;-54
2023/03/31 07:07:10;;;;;;;;;5.50;3.50;;;;;14.09;58.45;99327.22;5034889;28;45418;-54
2023/03/31 07:09:36;;;;;;;;;8.25;2.75;;;;;14.06;58.18;99330.50;5033759;28;45414;-51
2023/03/31 07:12:04;;;;;;;;;8.50;4.75;;;;;14.03;58.43;99325.53;5033964;28;45537;-53
2023/03/31 07:14:30;;;;;;;;;2.40;2.00;;;;;14.03;58.22;99325.53;5018116;28;45364;-54
2023/03/31 07:16:56;;;;;;;;;6.00;4.20;;;;;14.06;58.24;99333.25;5013872;28;45530;-53
2023/03/31 07:19:21;;;;;;;;;4.75;2.75;;;;;13.86;58.36;99278.84;5013862;28;46285;-52
2023/03/31 07:21:47;;;;;;;;;2.50;2.50;;;;;14.12;58.92;99332.16;5012228;28;45250;-54
2023/03/31 07:24:12;;;;;;;;;4.50;2.75;;;;;14.14;58.10;99321.69;5013884;28;45237;-53
2023/03/31 07:26:38;;;;;;;;;2.75;2.75;;;;;14.01;58.25;99342.34;5014160;28;45434;-54
2023/03/31 07:29:03;;;;;;;;;5.50;2.50;;;;;14.08;58.71;99355.88;5012150;28;45995;-54
2023/03/31 07:31:29;;;;;;;;;7.25;2.75;;;;;14.13;58.77;99344.84;5010988;28;45360;-51
2023/03/31 07:33:54;;;;;;;;;4.50;3.50;;;;;14.14;58.49;99335.47;5015436;28;45516;-51
2023/03/31 07:36:20;;;;;;;;;3.75;2.75;;;;;14.18;58.48;99346.81;5033888;28;45631;-54
2023/03/31 07:38:47;;;;;;;;;3.50;2.00;;;;;14.19;57.81;99329.97;5033141;28;46072;-56
2023/03/31 07:41:15;;;;;;;;;4.20;3.20;;;;;14.23;57.55;99322.84;5033523;28;45367;-53
2023/03/31 07:43:41;;;;;;;;;7.80;4.20;;;;;14.25;57.95;99346.56;5032633;28;45427;-54
2023/03/31 07:46:07;;;;;;;;;4.25;3.00;;;;;14.19;57.80;99329.97;5033677;28;45414;-54
2023/03/31 07:48:33;;;;;;;;;3.40;3.40;;;;;14.25;58.00;99352.09;4989255;28;46250;-57
2023/03/31 07:50:58;;;;;;;;;6.50;4.25;;;;;14.29;57.85;99347.69;5033673;28;45478;-53
2023/03/31 07:53:24;;;;;;;;;4.50;3.25;;;;;14.05;57.79;99315.03;5033543;28;45391;-53
2023/03/31 07:55:49;;;;;;;;;5.50;4.50;;;;;14.14;58.25;99316.16;5030111;28;45547;-54
2023/03/31 07:58:15;;;;;;;;;7.75;4.25;;;;;14.44;58.04;99352.41;5002953;28;45690;-55
2023/03/31 08:00:41;;;;;;;;;4.75;4.25;;;;;14.49;57.90;99345.00;5032566;28;45423;-54
2023/03/31 08:03:07;;;;;;;;;6.50;1.25;;;;;14.31;57.76;99324.22;5055933;28;45321;-57
2023/03/31 08:05:33;;;;;;;;;4.75;3.75;;;;;14.52;57.69;99337.25;5040627;28;45607;-55
2023/03/31 08:07:58;;;;;;;;;6.00;3.00;;;;;14.53;57.96;99339.75;5018431;28;45455;-51
2023/03/31 08:10:26;;;;;;;;;4.25;2.50;;;;;14.51;58.22;99347.44;5008320;28;45491;-55
2023/03/31 08:12:51;;;;;;;;;3.80;1.60;;;;;14.49;58.21;99338.63;5038603;28;45556;-54
2023/03/31 08:15:17;;;;;;;;;4.00;3.00;;;;;14.46;58.28;99341.94;5054671;28;45455;-57
2023/03/31 08:17:43;;;;;;;;;4.75;3.25;;;;;14.48;58.34;99346.06;5035697;28;45740;-57
2023/03/31 08:20:09;;;;;;;;;4.00;2.75;;;;;14.54;58.63;99354.38;5055328;28;45411;-57
2023/03/31 08:22:36;;;;;;;;;2.20;1.00;;;;;14.53;59.04;99367.34;5069111;28;45322;-57
2023/03/31 08:25:02;;;;;;;;;8.20;4.40;;;;;14.42;58.40;99325.09;5017458;28;45584;-57
2023/03/31 08:27:27;;;;;;;;;6.40;4.20;;;;;14.49;58.96;99322.91;5035366;28;46510;-57
2023/03/31 08:29:53;;;;;;;;;10.50;6.75;;;;;14.72;57.93;99330.91;5013388;28;45419;-58
2023/03/31 08:32:22;;;;;;;;;6.00;3.25;;;;;14.72;57.81;99347.50;5017546;28;45350;-57
2023/03/31 08:34:48;;;;;;;;;4.60;2.60;;;;;14.80;58.00;99338.72;5034075;28;45425;-57
2023/03/31 08:37:13;;;;;;;;;6.00;3.25;;;;;14.85;57.76;99343.41;5017145;28;45471;-55
2023/03/31 08:39:40;;;;;;;;;7.75;4.25;;;;;14.12;57.45;99226.50;5046924;28;45478;-56
2023/03/31 08:42:11;;;;;;;;;7.00;4.00;;;;;14.37;56.93;99253.31;5037491;28;45948;-59
2023/03/31 08:45:11;;;;;;;;;5.80;4.20;;;;;14.84;56.89;99311.38;5037227;28;45489;-56
2023/03/31 08:47:37;;;;;;;;;4.40;3.60;;;;;14.97;56.53;99334.84;5023416;28;45623;-55
2023/03/31 08:50:11;;;;;;;;;4.25;3.25;;;;;14.97;56.33;99330.16;5064237;28;45369;-58
2023/03/31 08:52:41;;;;;;;;;5.60;2.40;;;;;14.95;56.72;99329.63;5020974;28;45382;-56
2023/03/31 08:55:10;;;;;;;;;4.80;3.00;;;;;14.95;55.92;99315.81;5036746;28;45442;-55
2023/03/31 08:57:59;;;;;;;;;6.00;3.40;;;;;15.03;55.40;99328.22;5031305;28;46422;-55
2023/03/31 09:00:25;;;;;;;;;5.60;2.80;;;;;14.82;55.01;99303.34;5040632;28;45733;-56
2023/03/31 09:03:15;;;;;;;;;6.40;2.60;;;;;14.61;55.36;99280.38;5049630;28;45481;-55
2023/03/31 09:05:57;;;;;;;;;4.40;3.20;;;;;14.97;54.92;99296.16;5016720;28;45471;-55
2023/03/31 09:08:35;;;;;;;;;5.00;2.00;;;;;15.11;54.29;99313.03;5032599;28;46180;-54
2023/03/31 09:11:11;;;;;;;;;5.20;3.40;;;;;15.13;54.52;99321.84;5034378;28;45315;-56
2023/03/31 09:13:59;;;;;;;;;4.00;3.00;;;;;15.11;54.62;99329.59;5033788;28;45446;-57
2023/03/31 09:16:45;;;;;;;;;5.00;2.60;;;;;15.12;54.43;99309.16;5004043;28;45496;-57
2023/03/31 09:19:17;;;;;;;;;4.20;2.80;;;;;15.25;54.20;99318.81;4999530;28;48551;-56
2023/03/31 09:21:44;;;;;;;;;2.00;2.00;;;;;15.23;53.86;99327.41;5016129;28;45368;-57
2023/03/31 09:24:18;;;;;;;;;3.80;3.20;;;;;15.24;53.93;99334.56;5031647;28;45557;-57
2023/03/31 09:26:45;;;;;;;;;4.60;1.40;;;;;15.22;54.04;99298.09;5018385;28;45387;-55
2023/03/31 09:29:37;;;;;;;;;4.00;1.80;;;;;15.15;54.11;99322.41;5030504;28;45518;-57
2023/03/31 09:32:19;;;;;;;;;3.40;3.00;;;;;15.12;54.55;99350.59;5029257;28;45386;-55
2023/03/31 09:34:45;;;;;;;;;4.20;3.00;;;;;15.09;54.52;99327.13;5043864;28;45387;-55
2023/03/31 09:37:11;;;;;;;;;5.80;2.20;;;;;15.15;54.78;99330.69;5067272;28;45363;-57
2023/03/31 09:39:40;;;;;;;;;4.75;4.50;;;;;15.06;54.20;99297.28;5052453;28;45465;-55
2023/03/31 09:42:06;;;;;;;;;3.80;2.80;;;;;15.27;53.85;99322.94;5041509;28;45797;-54
2023/03/31 09:44:43;;;;;;;;;5.25;3.50;;;;;15.39;53.56;99311.63;5032279;28;45444;-57
2023/03/31 09:47:39;;;;;;;;;4.40;2.00;;;;;15.45;53.00;99324.31;5018887;28;45441;-57
2023/03/31 09:50:06;;;;;;;;;3.00;3.00;;;;;15.48;52.22;99311.84;4995081;28;45641;-55
2023/03/31 09:52:33;;;;;;;;;3.20;2.40;;;;;15.53;52.55;99327.63;5015819;28;45415;-56
2023/03/31 09:55:00;;;;;;;;;4.40;2.40;;;;;15.64;51.97;99311.84;5033712;28;45306;-56
2023/03/31 09:57:34;;;;;;;;;1.40;1.00;;;;;15.62;51.96;99311.28;5040104;28;45659;-55
2023/03/31 10:00:05;;;;;;;;;2.80;1.80;;;;;15.57;51.92;99306.59;5031115;28;45909;-56
2023/03/31 10:02:35;;;;;;;;;2.20;2.20;;;;;15.50;51.99;99283.94;5032037;28;45410;-55
2023/03/31 10:05:01;;;;;;;;;1.40;0.20;;;;;15.70;51.59;99296.88;5022991;28;45406;-55
2023/03/31 10:07:27;;;;;;;;;4.20;1.60;;;;;15.80;51.39;99293.25;5015183;28;45469;-54
2023/03/31 10:09:53;;;;;;;;;2.50;2.00;;;;;15.58;51.72;99289.72;5032069;28;45531;-54
2023/03/31 10:12:23;;;;;;;;;4.20;2.00;;;;;15.45;51.32;99246.06;5012796;28;45557;-55
2023/03/31 10:14:50;;;;;;;;;4.20;1.40;;;;;15.79;51.62;99300.72;4997825;28;45724;-57
2023/03/31 10:17:23;;;;;;;;;2.60;1.60;;;;;15.58;51.19;99256.53;5013503;28;45520;-55
2023/03/31 10:19:51;;;;;;;;;2.20;1.60;;;;;15.74;51.18;99299.91;4999752;28;46064;-57
2023/03/31 10:22:20;;;;;;;;;3.60;2.00;;;;;15.57;51.32;99320.41;5023617;28;45480;-60
2023/03/31 10:24:47;;;;;;;;;2.60;1.00;;;;;15.30;51.80;99272.66;5003219;28;45339;-60
2023/03/31 10:27:26;;;;;;;;;1.60;1.60;;;;;15.53;51.30;99325.66;5015362;28;45534;-61
2023/03/31 10:30:10;;;;;;;;;4.00;1.80;;;;;15.61;51.43;99309.63;4987506;28;46275;-54
2023/03/31 10:32:42;;;;;;;;;2.00;2.00;;;;;15.71;50.89;99309.59;4996213;28;45849;-57
2023/03/31 10:35:36;;;;;;;;;4.20;3.00;;;;;15.76;50.66;99305.97;5009796;28;45486;-60
2023/03/31 10:38:06;;;;;;;;;1.40;1.40;;;;;15.77;50.25;99308.47;5010381;28;45461;-59
2023/03/31 10:40:32;;;;;;;;;5.00;5.00;;;;;15.91;49.88;99305.91;4986435;28;46897;-59
2023/03/31 10:43:15;;;;;;;;;3.00;2.00;;;;;15.74;50.36;99256.47;5016466;28;45513;-55
2023/03/31 10:45:43;;;;;;;;;3.00;1.00;;;;;15.85;49.19;99307.06;5046059;28;45622;-61
2023/03/31 10:48:23;;;;;;;;;2.20;1.60;;;;;15.86;49.93;99294.88;5032016;28;45955;-56
2023/03/31 10:50:49;;;;;;;;;6.00;3.00;;;;;15.92;49.78;99298.47;5032062;28;45693;-56
2023/03/31 10:53:15;;;;;;;;;8.75;4.00;;;;;15.95;49.63;99282.16;5013803;28;45701;-55
2023/03/31 10:56:07;;;;;;;;;1.50;1.50;;;;;15.93;49.63;99302.91;5037114;28;45962;-59
2023/03/31 10:58:47;;;;;;;;;6.60;2.00;;;;;16.07;49.63;99306.72;5014286;28;45731;-58
2023/03/31 11:01:22;;;;;;;;;1.40;1.20;;;;;16.24;49.32;99303.56;5010798;28;46567;-59
2023/03/31 11:04:26;;;;;;;;;4.40;3.00;;;;;16.25;49.11;99301.66;5030000;28;45390;-60
2023/03/31 11:07:12;;;;;;;;;2.40;1.40;;;;;16.31;49.66;99296.91;5028647;28;45450;-56
2023/03/31 11:09:56;;;;;;;;;1.20;1.00;;;;;16.28;49.44;99300.25;5031542;28;45363;-57
2023/03/31 11:12:26;;;;;;;;;4.40;1.80;;;;;16.23;50.03;99303.88;5029565;28;46608;-60
2023/03/31 11:15:14;;;;;;;;;3.60;2.40;;;;;16.26;49.34;99314.38;5013765;28;45439;-58
2023/03/31 11:18:08;;;;;;;;;5.00;3.60;;;;;16.33;49.71;99320.41;5048222;28;45494;-59
2023/03/31 11:21:10;;;;;;;;;5.00;2.00;;;;;16.45;49.06;99305.41;5047446;28;45480;-56
2023/03/31 11:23:48;;;;;;;;;3.60;1.00;;;;;16.67;48.26;99307.75;5017244;28;46344;-58
2023/03/31 11:26:37;;;;;;;;;3.40;2.00;;;;;16.50;48.52;99275.72;5032861;28;45355;-58
2023/03/31 11:29:29;;;;;;;;;2.00;1.00;;;;;16.69;48.49;99315.78;5032927;28;45493;-56
2023/03/31 11:32:03;;;;;;;;;1.20;0.00;;;;;16.62;48.04;99292.00;5014877;28;45324;-52
2023/03/31 11:34:41;;;;;;;;;1.00;1.00;;;;;16.31;47.87;99264.50;5013127;28;47727;-54
2023/03/31 11:37:40;;;;;;;;;3.60;2.80;;;;;16.36;47.99;99296.88;5036596;28;45427;-55
2023/03/31 11:40:31;;;;;;;;;7.80;3.00;;;;;16.34;48.64;99283.31;5005874;28;45415;-56
2023/03/31 11:43:00;;;;;;;;;4.80;1.20;;;;;16.39;48.55;99279.69;5035685;28;45772;-56
2023/03/31 11:45:32;;;;;;;;;5.00;3.20;;;;;16.29;49.12;99257.59;4958967;28;45924;-54
2023/03/31 11:48:05;;;;;;;;;4.40;3.00;;;;;16.47;48.32;99264.41;5023889;28;45524;-59
2023/03/31 11:50:33;;;;;;;;;2.20;0.40;;;;;16.62;47.26;99266.25;5044020;28;45716;-54